Time;durP1;ratioP1;P1;durP2;ratioP2;P2;SDS_P1;SDS_P2;PMS_P1;PMS_P2;Temp;Humidity;BMP_temperature;BMP_pressure;BME280_temperature;BME280_humidity;BME280_pressure;Samples;Min_cycle;Max_cycle;Signal;HPM_P1;HPM_P2
2021/01/11 00:00:21;;;;;;;9.20;8.80;;;28.10;99.90;;;;;;5096547;28;20103;-60
2021/01/11 00:02:49;;;;;;;8.30;7.80;;;28.20;99.90;;;;;;5096530;28;20016;-58
2021/01/11 00:05:17;;;;;;;9.15;8.57;;;28.30;99.90;;;;;;5096309;28;20051;-59
2021/01/11 00:07:45;;;;;;;9.32;8.73;;;28.40;99.90;;;;;;5096521;28;20020;-59
2021/01/11 00:10:13;;;;;;;8.77;8.38;;;28.50;99.90;;;;;;5096412;28;20025;-59
2021/01/11 00:12:42;;;;;;;8.15;7.65;;;28.50;99.90;;;;;;5096366;28;20028;-59
2021/01/11 00:15:13;;;;;;;8.98;8.48;;;28.50;99.90;;;;;;5096185;28;20384;-59
2021/01/11 00:17:39;;;;;;;;;;;28.50;99.90;;;;;;5096491;28;20020;-59
2021/01/11 00:20:08;;;;;;;8.63;8.13;;;28.60;99.90;;;;;;5096223;28;19904;-59
2021/01/11 00:22:36;;;;;;;9.32;8.73;;;28.80;99.90;;;;;;5096192;28;20012;-58
2021/01/11 00:25:05;;;;;;;8.18;7.88;;;29.00;99.90;;;;;;5095686;28;20078;-60
2021/01/11 00:27:32;;;;;;;9.40;8.90;;;29.20;99.90;;;;;;5295797;23;20154;-56
2021/01/11 00:29:59;;;;;;;9.00;8.60;;;29.30;99.90;;;;;;5096014;28;20012;-56
2021/01/11 00:32:27;;;;;;;8.93;8.38;;;29.20;99.90;;;;;;5095983;28;20421;-53
2021/01/11 00:34:54;;;;;;;9.95;9.35;;;29.00;99.90;;;;;;5095898;28;20042;-57
2021/01/11 00:37:22;;;;;;;10.68;10.07;;;29.00;99.90;;;;;;5095919;28;20028;-56
2021/01/11 00:39:50;;;;;;;10.13;9.52;;;29.10;99.90;;;;;;5095637;28;20416;-57
2021/01/11 00:42:17;;;;;;;10.15;9.65;;;28.90;99.90;;;;;;5095740;28;20020;-55
2021/01/11 00:44:44;;;;;;;9.43;8.82;;;28.90;99.90;;;;;;5095688;28;20032;-56
2021/01/11 00:47:12;;;;;;;9.77;9.27;;;29.00;99.90;;;;;;5095678;28;20024;-54
2021/01/11 00:49:41;;;;;;;9.88;9.35;;;28.80;99.90;;;;;;5095261;28;20055;-52
2021/01/11 00:52:09;;;;;;;9.05;8.57;;;28.80;99.90;;;;;;5095522;28;20074;-56
2021/01/11 00:54:38;;;;;;;8.95;8.15;;;28.70;99.90;;;;;;5095644;28;20024;-56
2021/01/11 00:57:08;;;;;;;8.60;8.20;;;28.70;99.90;;;;;;5095407;28;20099;-53
2021/01/11 00:59:35;;;;;;;10.23;9.73;;;28.70;99.90;;;;;;5095438;28;20020;-55
2021/01/11 01:02:02;;;;;;;9.98;9.40;;;28.60;99.90;;;;;;5095292;28;20527;-55
2021/01/11 01:04:30;;;;;;;9.73;9.20;;;28.70;99.90;;;;;;5095229;28;20023;-57
2021/01/11 01:07:06;;;;;;;8.25;7.80;;;28.80;99.90;;;;;;5095258;28;20024;-55
2021/01/11 01:09:33;;;;;;;8.70;8.10;;;28.90;99.90;;;;;;5095138;28;20028;-56
2021/01/11 01:12:01;;;;;;;8.80;8.07;;;29.00;99.90;;;;;;5095110;28;20042;-57
2021/01/11 01:14:28;;;;;;;10.02;9.35;;;29.10;99.90;;;;;;5095067;28;20062;-56
2021/01/11 01:16:55;;;;;;;6.00;5.80;;;29.10;99.90;;;;;;5094969;28;20412;-56
2021/01/11 01:19:23;;;;;;;6.50;6.10;;;28.70;99.90;;;;;;5094920;28;20081;-56
2021/01/11 01:21:50;;;;;;;5.65;5.40;;;28.70;99.90;;;;;;5094836;28;20016;-56
2021/01/11 01:24:17;;;;;;;7.47;7.00;;;28.90;99.90;;;;;;5094863;28;20028;-54
2021/01/11 01:26:45;;;;;;;9.43;8.52;;;28.70;99.90;;;;;;5094488;28;20460;-56
2021/01/11 01:29:12;;;;;;;6.75;6.30;;;28.60;99.90;;;;;;5094793;28;20027;-57
2021/01/11 01:31:39;;;;;;;10.50;10.00;;;28.70;99.90;;;;;;5094848;28;20022;-55
2021/01/11 01:34:07;;;;;;;9.00;8.48;;;28.70;99.90;;;;;;5094658;28;20028;-53
2021/01/11 01:36:34;;;;;;;9.68;9.18;;;28.80;99.90;;;;;;5094567;28;20106;-54
2021/01/11 01:39:01;;;;;;;8.30;7.90;;;29.00;99.90;;;;;;5094420;28;20065;-56
2021/01/11 01:41:29;;;;;;;9.27;8.73;;;29.20;99.90;;;;;;5094790;28;20077;-58
2021/01/11 01:43:56;;;;;;;9.35;8.77;;;29.30;99.90;;;;;;5094489;28;20081;-51
2021/01/11 01:46:32;;;;;;;9.70;9.00;;;29.50;99.90;;;;;;5094423;28;20020;-56
2021/01/11 01:49:03;;;;;;;7.97;7.32;;;29.60;99.90;;;;;;5094454;28;20113;-56
2021/01/11 01:51:30;;;;;;;9.10;8.73;;;29.70;99.90;;;;;;5094315;28;20463;-56
2021/01/11 01:53:57;;;;;;;9.27;8.82;;;29.60;99.90;;;;;;5092907;28;20024;-54
2021/01/11 01:56:28;;;;;;;10.27;9.60;;;29.60;99.90;;;;;;5094141;28;20487;-56
2021/01/11 01:58:56;;;;;;;10.32;9.70;;;29.70;99.90;;;;;;5094187;28;20016;-56
2021/01/11 02:01:23;;;;;;;9.73;9.20;;;29.50;99.90;;;;;;5093326;28;20028;-57
2021/01/11 02:03:51;;;;;;;10.10;9.50;;;29.50;99.90;;;;;;5094109;28;20020;-55
2021/01/11 02:06:19;;;;;;;10.07;9.48;;;29.30;99.90;;;;;;5094022;28;20048;-56
2021/01/11 02:08:56;;;;;;;9.73;9.20;;;29.20;99.90;;;;;;5094210;28;20523;-56
2021/01/11 02:11:43;;;;;;;10.57;9.88;;;29.30;99.90;;;;;;5093812;28;20031;-59
2021/01/11 02:14:41;;;;;;;10.40;9.77;;;29.20;99.90;;;;;;5094079;28;20073;-56
2021/01/11 02:17:38;;;;;;;10.77;9.90;;;29.10;99.90;;;;;;5065767;28;20573;-56
2021/01/11 02:20:30;;;;;;;10.85;10.05;;;29.20;99.90;;;;;;5088022;28;20039;-53
2021/01/11 02:23:36;;;;;;;9.05;8.45;;;29.40;99.90;;;;;;5093971;28;20020;-58
2021/01/11 02:26:29;;;;;;;8.75;8.32;;;29.40;99.90;;;;;;5093607;28;20376;-57
2021/01/11 02:29:06;;;;;;;9.68;9.10;;;29.30;99.90;;;;;;5093763;28;20016;-56
2021/01/11 02:31:34;;;;;;;8.95;8.40;;;29.30;99.90;;;;;;5093971;28;20020;-56
2021/01/11 02:34:03;;;;;;;8.82;8.30;;;29.50;99.90;;;;;;5093452;28;20027;-57
2021/01/11 02:36:31;;;;;;;8.88;8.40;;;29.40;99.90;;;;;;5093408;28;20055;-57
2021/01/11 02:38:58;;;;;;;9.13;8.63;;;29.40;99.90;;;;;;5093505;28;20012;-57
2021/01/11 02:41:25;;;;;;;8.68;8.23;;;29.30;99.90;;;;;;5093543;28;20016;-56
2021/01/11 02:43:53;;;;;;;7.82;7.32;;;29.40;99.80;;;;;;5093442;28;20024;-55
2021/01/11 02:46:20;;;;;;;9.85;9.00;;;29.40;99.90;;;;;;5093460;28;20035;-58
2021/01/11 02:49:00;;;;;;;7.47;7.07;;;29.40;99.70;;;;;;5093531;28;20020;-54
2021/01/11 02:51:50;;;;;;;9.05;8.38;;;29.30;99.90;;;;;;5093908;28;20028;-61
2021/01/11 02:54:26;;;;;;;8.38;7.85;;;29.40;99.90;;;;;;5093583;28;20028;-56
2021/01/11 02:57:22;;;;;;;7.78;7.25;;;29.40;99.90;;;;;;5093655;28;20020;-56
2021/01/11 02:59:56;;;;;;;7.40;7.00;;;29.30;99.70;;;;;;5084770;28;20036;-57
2021/01/11 03:02:26;;;;;;;9.25;8.85;;;29.30;99.30;;;;;;5093399;28;20547;-56
2021/01/11 03:04:54;;;;;;;9.48;8.63;;;29.40;99.70;;;;;;5093235;28;20020;-55
2021/01/11 03:07:21;;;;;;;8.48;8.00;;;29.30;99.70;;;;;;5093445;28;20028;-56
2021/01/11 03:09:49;;;;;;;8.93;8.40;;;29.50;99.90;;;;;;5093380;28;20020;-55
2021/01/11 03:12:17;;;;;;;9.40;8.90;;;29.50;99.90;;;;;;5094825;28;20031;-54
2021/01/11 03:14:44;;;;;;;9.18;8.50;;;29.40;99.40;;;;;;5097586;28;20107;-56
2021/01/11 03:17:12;;;;;;;9.00;8.40;;;29.40;99.50;;;;;;5097239;28;20085;-56
2021/01/11 03:19:39;;;;;;;9.20;8.80;;;29.10;99.80;;;;;;5097471;28;20016;-55
2021/01/11 03:22:06;;;;;;;9.40;8.90;;;29.30;99.90;;;;;;5097416;28;20089;-55
2021/01/11 03:24:34;;;;;;;8.20;7.70;;;29.50;99.90;;;;;;5097406;28;20031;-55
2021/01/11 03:27:01;;;;;;;9.60;9.00;;;29.50;99.80;;;;;;5097011;28;20126;-56
2021/01/11 03:29:29;;;;;;;9.30;8.80;;;29.60;99.90;;;;;;5097185;28;20024;-54
2021/01/11 03:31:56;;;;;;;9.23;8.65;;;29.40;99.90;;;;;;5095771;28;20027;-55
2021/01/11 03:34:24;;;;;;;9.00;8.50;;;29.10;99.50;;;;;;5097057;28;20573;-56
2021/01/11 03:36:51;;;;;;;9.23;8.63;;;29.10;99.70;;;;;;5097325;28;20066;-53
2021/01/11 03:39:18;;;;;;;8.98;8.40;;;29.30;99.50;;;;;;5096959;28;20028;-57
2021/01/11 03:41:49;;;;;;;7.30;6.90;;;29.00;99.80;;;;;;5097199;28;20529;-54
2021/01/11 03:44:16;;;;;;;6.60;6.28;;;29.00;99.90;;;;;;5096976;28;20024;-57
2021/01/11 03:46:43;;;;;;;7.13;6.72;;;28.90;99.90;;;;;;5097138;28;20584;-55
2021/01/11 03:49:11;;;;;;;7.43;7.05;;;28.80;99.90;;;;;;5096885;28;20043;-57
2021/01/11 03:51:38;;;;;;;8.20;7.65;;;28.80;99.90;;;;;;5096932;28;20021;-55
2021/01/11 03:54:06;;;;;;;8.55;8.02;;;28.90;99.90;;;;;;5096713;28;20031;-54
2021/01/11 03:56:33;;;;;;;8.80;8.40;;;29.30;99.90;;;;;;5096656;28;20028;-56
2021/01/11 03:59:00;;;;;;;9.45;8.95;;;29.40;99.90;;;;;;5096612;28;20059;-54
2021/01/11 04:01:28;;;;;;;9.63;9.13;;;29.60;99.90;;;;;;5096837;28;20070;-54
2021/01/11 04:03:55;;;;;;;10.18;9.70;;;29.60;99.90;;;;;;5096635;28;20031;-53
2021/01/11 04:06:23;;;;;;;9.90;9.40;;;29.40;99.90;;;;;;5096504;28;20430;-53
2021/01/11 04:08:50;;;;;;;10.50;9.90;;;29.30;99.70;;;;;;5096393;28;20024;-48
2021/01/11 04:11:21;;;;;;;9.43;8.95;;;29.10;99.90;;;;;;5096496;28;20016;-55
2021/01/11 04:13:49;;;;;;;9.60;9.05;;;29.30;99.90;;;;;;5096467;28;20104;-55
2021/01/11 04:16:17;;;;;;;8.50;8.10;;;29.10;99.90;;;;;;5096424;28;20494;-55
2021/01/11 04:18:45;;;;;;;8.50;8.10;;;29.30;99.90;;;;;;5096694;28;20028;-54
2021/01/11 04:21:16;;;;;;;8.60;8.20;;;29.30;99.90;;;;;;5096322;28;20020;-53
2021/01/11 04:23:43;;;;;;;8.57;8.10;;;29.30;99.90;;;;;;5095477;28;20031;-54
2021/01/11 04:26:11;;;;;;;8.50;8.20;;;29.40;99.90;;;;;;5095904;28;20078;-57
2021/01/11 04:28:39;;;;;;;9.10;8.50;;;29.30;99.90;;;;;;5096333;28;20063;-54
2021/01/11 04:31:07;;;;;;;9.10;8.60;;;29.30;99.90;;;;;;5096210;28;20024;-53
2021/01/11 04:33:34;;;;;;;9.32;8.82;;;29.30;99.90;;;;;;5095918;28;20377;-53
2021/01/11 04:36:02;;;;;;;8.93;8.43;;;29.30;99.90;;;;;;5095858;28;20029;-54
2021/01/11 04:38:29;;;;;;;8.38;7.88;;;29.00;99.90;;;;;;5096258;28;20437;-56
2021/01/11 04:41:04;;;;;;;8.68;8.10;;;29.20;99.90;;;;;;5095844;28;20397;-54
2021/01/11 04:43:44;;;;;;;9.70;9.10;;;29.50;99.90;;;;;;5095742;28;20016;-55
2021/01/11 04:46:13;;;;;;;8.80;8.40;;;29.40;99.90;;;;;;5095864;28;20549;-55
2021/01/11 04:48:44;;;;;;;9.63;9.10;;;29.30;99.90;;;;;;5095690;28;20032;-56
2021/01/11 04:51:12;;;;;;;10.20;9.57;;;29.30;99.90;;;;;;5095923;28;20028;-55
2021/01/11 04:53:42;;;;;;;10.45;9.88;;;29.30;99.90;;;;;;5095894;28;20024;-54
2021/01/11 04:56:12;;;;;;;10.40;9.90;;;29.30;99.90;;;;;;5095798;28;20115;-53
2021/01/11 04:59:02;;;;;;;10.30;9.80;;;29.20;99.90;;;;;;5095572;28;20028;-56
2021/01/11 05:01:30;;;;;;;10.00;9.40;;;29.20;99.90;;;;;;5095413;28;20509;-57
2021/01/11 05:04:01;;;;;;;10.23;9.60;;;29.30;99.90;;;;;;5095574;28;20043;-54
2021/01/11 05:06:29;;;;;;;9.90;9.40;;;29.40;99.90;;;;;;5095399;28;20039;-54
2021/01/11 05:09:08;;;;;;;9.63;9.02;;;29.30;99.90;;;;;;5094043;28;20054;-56
2021/01/11 05:11:35;;;;;;;9.02;8.63;;;29.10;99.90;;;;;;5095217;28;20027;-55
2021/01/11 05:14:03;;;;;;;9.55;9.15;;;29.10;99.90;;;;;;5095544;28;20028;-54
2021/01/11 05:16:30;;;;;;;8.45;7.95;;;29.20;99.90;;;;;;5095063;28;20338;-56
2021/01/11 05:19:27;;;;;;;9.00;8.50;;;29.30;99.90;;;;;;5095074;28;20024;-55
2021/01/11 05:21:54;;;;;;;9.55;9.00;;;29.40;99.90;;;;;;5095108;28;20557;-55
2021/01/11 05:24:33;;;;;;;9.18;8.60;;;29.30;99.90;;;;;;5094876;28;20024;-57
2021/01/11 05:27:06;;;;;;;9.75;9.15;;;29.30;99.90;;;;;;5094642;28;20051;-56
2021/01/11 05:29:35;;;;;;;10.02;9.43;;;29.10;99.90;;;;;;5094864;28;20531;-56
2021/01/11 05:32:05;;;;;;;8.90;8.40;;;29.20;99.90;;;;;;5095083;28;20124;-55
2021/01/11 05:34:48;;;;;;;;;;;29.50;99.90;;;;;;5095094;28;20020;-58
2021/01/11 05:37:35;;;;;;;9.50;9.10;;;29.60;99.70;;;;;;5092772;28;19912;-56
2021/01/11 05:40:17;;;;;;;10.35;9.80;;;29.60;99.90;;;;;;5094745;28;20035;-54
2021/01/11 05:42:57;;;;;;;10.70;10.10;;;29.40;99.90;;;;;;5094704;28;20056;-54
2021/01/11 05:45:29;;;;;;;10.10;9.50;;;29.40;99.90;;;;;;5094497;28;20016;-55
2021/01/11 05:48:08;;;;;;;10.65;10.00;;;29.40;99.90;;;;;;5094397;28;20380;-55
2021/01/11 05:50:37;;;;;;;9.70;9.00;;;29.50;99.90;;;;;;5094718;28;20031;-57
2021/01/11 05:53:14;;;;;;;9.55;9.05;;;29.40;99.90;;;;;;5094323;28;20111;-56
2021/01/11 05:55:42;;;;;;;9.82;9.23;;;29.40;99.90;;;;;;5094528;28;20052;-56
2021/01/11 05:58:10;;;;;;;10.40;9.70;;;29.50;99.90;;;;;;5094304;28;20065;-56
2021/01/11 06:00:39;;;;;;;9.45;8.85;;;29.30;99.90;;;;;;5094388;28;20377;-55
2021/01/11 06:03:09;;;;;;;9.77;9.20;;;29.30;99.90;;;;;;5093031;28;20020;-55
2021/01/11 06:05:37;;;;;;;10.00;9.50;;;29.30;99.90;;;;;;5094080;28;20035;-56
2021/01/11 06:08:06;;;;;;;9.90;9.30;;;29.20;99.90;;;;;;5094146;28;20031;-55
2021/01/11 06:10:35;;;;;;;10.05;9.55;;;29.40;99.90;;;;;;5094209;28;20027;-58
2021/01/11 06:13:06;;;;;;;9.93;9.52;;;29.60;99.90;;;;;;5092868;28;20028;-58
2021/01/11 06:15:35;;;;;;;10.10;9.40;;;29.80;99.90;;;;;;5093927;28;20106;-56
2021/01/11 06:18:07;;;;;;;9.70;9.07;;;30.00;99.90;;;;;;5094026;28;20016;-54
2021/01/11 06:20:34;;;;;;;10.15;9.50;;;30.30;99.90;;;;;;5093894;28;20016;-55
2021/01/11 06:23:03;;;;;;;10.20;9.60;;;30.30;99.90;;;;;;5093934;28;20020;-57
2021/01/11 06:25:30;;;;;;;9.82;9.13;;;30.50;99.80;;;;;;5093947;28;20081;-55
2021/01/11 06:28:04;;;;;;;9.55;9.00;;;30.60;99.40;;;;;;5093491;28;20118;-57
2021/01/11 06:30:38;;;;;;;10.18;9.50;;;30.40;99.30;;;;;;5093708;28;20487;-57
2021/01/11 06:33:14;;;;;;;10.15;9.55;;;30.10;99.80;;;;;;5093652;28;20027;-57
2021/01/11 06:35:52;;;;;;;9.70;9.18;;;30.10;99.40;;;;;;5093677;28;20028;-57
2021/01/11 06:38:31;;;;;;;9.23;8.63;;;29.90;99.30;;;;;;5093460;28;20433;-55
2021/01/11 06:41:04;;;;;;;8.82;8.32;;;30.10;99.90;;;;;;5093484;28;20487;-55
2021/01/11 06:43:53;;;;;;;9.38;8.80;;;30.20;99.80;;;;;;5093906;28;20039;-56
2021/01/11 06:46:29;;;;;;;8.05;7.45;;;30.20;99.60;;;;;;5093206;28;20042;-56
2021/01/11 06:49:05;;;;;;;10.07;9.38;;;29.60;99.80;;;;;;5093406;28;20024;-55
2021/01/11 06:51:43;;;;;;;9.02;8.45;;;29.80;99.90;;;;;;5093357;28;20443;-57
2021/01/11 06:54:17;;;;;;;9.00;8.50;;;30.20;99.90;;;;;;5075518;28;20032;-57
2021/01/11 06:56:46;;;;;;;9.40;8.80;;;30.50;99.70;;;;;;5093457;28;20034;-56
2021/01/11 06:59:18;;;;;;;9.13;8.52;;;30.50;99.50;;;;;;5093769;28;20484;-57
2021/01/11 07:01:47;;;;;;;9.30;8.70;;;30.10;99.60;;;;;;5093607;28;20021;-58
2021/01/11 07:04:36;;;;;;;8.85;8.32;;;29.80;99.60;;;;;;5093455;28;20107;-58
2021/01/11 07:07:04;;;;;;;9.68;8.88;;;29.90;99.70;;;;;;5093160;28;20404;-57
2021/01/11 07:09:49;;;;;;;9.43;8.80;;;29.70;99.60;;;;;;5093184;28;20496;-56
2021/01/11 07:12:19;;;;;;;9.25;8.75;;;29.70;99.90;;;;;;5093513;28;20038;-56
2021/01/11 07:15:07;;;;;;;9.75;9.23;;;29.40;99.90;;;;;;5093318;28;20031;-54
2021/01/11 07:17:48;;;;;;;9.27;8.75;;;29.40;99.90;;;;;;5093057;28;20032;-54
2021/01/11 07:20:41;;;;;;;9.73;8.93;;;29.10;99.90;;;;;;5093065;28;20020;-52
2021/01/11 07:23:09;;;;;;;10.02;9.40;;;29.00;99.90;;;;;;5093362;28;20504;-54
2021/01/11 07:25:37;;;;;;;9.57;9.00;;;28.60;99.90;;;;;;5093202;28;20017;-55
2021/01/11 07:28:06;;;;;;;9.48;8.90;;;28.30;99.90;;;;;;5092962;28;20048;-53
2021/01/11 07:30:35;;;;;;;9.18;8.68;;;28.20;99.90;;;;;;5093001;28;20111;-55
2021/01/11 07:33:11;;;;;;;9.53;9.03;;;28.10;99.90;;;;;;5092990;28;20029;-52
2021/01/11 07:35:40;;;;;;;9.50;9.00;;;27.70;99.90;;;;;;5092897;28;20519;-54
2021/01/11 07:38:12;;;;;;;9.75;9.15;;;27.40;99.90;;;;;;5093131;28;20031;-55
2021/01/11 07:40:39;;;;;;;9.73;9.20;;;27.20;99.90;;;;;;5093088;28;20050;-54
2021/01/11 07:43:07;;;;;;;10.10;9.40;;;27.30;99.90;;;;;;5093095;28;20099;-56
2021/01/11 07:45:34;;;;;;;10.13;9.52;;;27.10;99.90;;;;;;5092684;28;20028;-56
2021/01/11 07:48:01;;;;;;;10.30;9.80;;;26.70;99.90;;;;;;5092733;28;20075;-54
2021/01/11 07:50:30;;;;;;;9.50;8.95;;;26.60;99.90;;;;;;5092731;28;20020;-56
2021/01/11 07:52:58;;;;;;;9.98;9.15;;;26.50;99.90;;;;;;5092807;28;20065;-55
2021/01/11 07:55:29;;;;;;;9.93;9.23;;;26.80;99.90;;;;;;5093050;28;20020;-56
2021/01/11 07:58:04;;;;;;;9.50;8.65;;;27.00;99.90;;;;;;5092963;28;20035;-56
2021/01/11 08:00:31;;;;;;;9.15;8.55;;;27.00;99.90;;;;;;5096355;28;20021;-55
2021/01/11 08:02:59;;;;;;;10.07;9.15;;;26.60;99.90;;;;;;5095076;28;20038;-53
2021/01/11 08:05:27;;;;;;;9.55;8.95;;;26.40;99.90;;;;;;5096543;28;20077;-56
2021/01/11 08:08:10;;;;;;;9.48;9.00;;;26.20;99.90;;;;;;5096639;28;20036;-57
2021/01/11 08:10:38;;;;;;;10.25;9.52;;;26.30;99.90;;;;;;5096522;28;20362;-57
2021/01/11 08:13:06;;;;;;;9.50;9.00;;;26.60;99.90;;;;;;5096389;28;20107;-57
2021/01/11 08:15:34;;;;;;;10.23;9.55;;;26.30;99.90;;;;;;5096212;28;20028;-58
2021/01/11 08:18:05;;;;;;;9.63;9.02;;;25.80;99.90;;;;;;5096013;28;20023;-58
2021/01/11 08:20:33;;;;;;;9.70;9.10;;;25.30;99.90;;;;;;5095976;28;20016;-58
2021/01/11 08:23:12;;;;;;;9.60;9.10;;;25.00;99.90;;;;;;5095844;28;20016;-58
2021/01/11 08:25:40;;;;;;;10.20;9.50;;;24.70;99.90;;;;;;5095957;28;20027;-58
2021/01/11 08:28:10;;;;;;;9.80;9.20;;;24.50;99.90;;;;;;5095721;28;20048;-58
2021/01/11 08:30:37;;;;;;;11.00;10.38;;;24.30;99.90;;;;;;5095706;28;20171;-58
2021/01/11 08:33:09;;;;;;;10.02;9.38;;;24.20;99.90;;;;;;5095675;28;20030;-58
2021/01/11 08:35:36;;;;;;;9.23;8.80;;;24.10;99.90;;;;;;5095707;28;20021;-58
2021/01/11 08:38:05;;;;;;;8.95;8.55;;;24.10;99.90;;;;;;5095966;28;20030;-63
2021/01/11 08:40:34;;;;;;;10.88;10.27;;;24.00;99.90;;;;;;5095622;28;20030;-59
2021/01/11 08:43:25;;;;;;;10.00;9.40;;;23.90;99.90;;;;;;5095568;28;20106;-57
2021/01/11 08:45:53;;;;;;;9.85;9.15;;;23.80;99.90;;;;;;5095662;28;20026;-58
2021/01/11 08:48:27;;;;;;;10.43;9.60;;;23.80;99.90;;;;;;5095486;28;20498;-59
2021/01/11 08:50:54;;;;;;;11.25;10.38;;;23.70;99.90;;;;;;5095462;28;20388;-59
2021/01/11 08:53:25;;;;;;;10.02;9.40;;;23.60;99.90;;;;;;5095602;28;20016;-57
2021/01/11 08:56:08;;;;;;;9.90;9.20;;;23.60;99.90;;;;;;5095217;28;20032;-57
2021/01/11 08:58:37;;;;;;;11.23;10.43;;;23.50;99.90;;;;;;5095304;28;20024;-58
2021/01/11 09:01:18;;;;;;;10.10;9.60;;;23.50;99.90;;;;;;5095380;28;20021;-58
2021/01/11 09:03:58;;;;;;;10.35;9.75;;;23.40;99.90;;;;;;5095324;28;20024;-58
2021/01/11 09:06:47;;;;;;;10.25;9.60;;;23.40;99.90;;;;;;5095196;28;20024;-58
2021/01/11 09:09:19;;;;;;;11.00;10.35;;;23.30;99.90;;;;;;5095134;28;20032;-57
2021/01/11 09:11:49;;;;;;;9.65;9.15;;;23.30;99.90;;;;;;5094284;28;20035;-57
2021/01/11 09:14:17;;;;;;;10.57;10.00;;;23.30;99.90;;;;;;5094980;28;20021;-61
2021/01/11 09:16:46;;;;;;;10.38;9.77;;;23.20;99.90;;;;;;5094825;28;20110;-57
2021/01/11 09:19:16;;;;;;;10.73;10.00;;;23.20;99.90;;;;;;5094938;28;20032;-56
2021/01/11 09:21:44;;;;;;;8.70;8.10;;;23.20;99.90;;;;;;5094790;28;20020;-56
2021/01/11 09:24:13;;;;;;;9.13;8.40;;;23.20;99.90;;;;;;5094799;28;20012;-58
2021/01/11 09:26:43;;;;;;;9.13;8.40;;;23.10;99.90;;;;;;5094508;28;20040;-54
2021/01/11 09:29:10;;;;;;;9.13;8.55;;;23.10;99.90;;;;;;5094857;28;20027;-53
